메인 페이지
METAR-TAF:

METAR-TAF

공항 :

라지브 간디 국제공항

하이데라바드, 인도

위도: 17-14-00N, 경도: 078-26-00E, 고도: 617m

현재 날씨관측

예보는 36분 전, 10:00시(UTC)에 발표되었습니다.
북동5kt
온도 27°C
습도 51%
기압 1017 hPa
시정: 6000m

METAR: VOHS 151000Z 05005KT 6000 NSC 27/16 Q1017 NOSIG

시각: 16:06 (10:36 UTC)

예보

예보는 5 시간 36분 전, 05:00시(UTC)에 발표되었습니다.
예보 대상 시간: 15일 06시부터 16일 12시까지 (UTC)
북동8kt
시정: 5000m
고도 1500ft 상공 구름 보통
고도 2500ft 상공 구름 보통
연무
전환 중
15일 20시부터 15일 22시까지 (UTC)
북동5kt
시정: 3000m
고도 1000ft 상공 구름 보통
고도 8000ft 상공 구름 많음
박무
일시적
16일 00시부터 16일 03시까지 (UTC)
시정: 1500m
고도 1000ft 상공 구름 많음
박무
전환 중
16일 04시부터 16일 06시까지 (UTC)
북북동8kt
시정: 5000m
고도 1500ft 상공 구름 보통
고도 10000ft 상공 구름 많음
연무
일시적
16일 06시부터 16일 12시까지 (UTC)
시정: 3000m
고도 1000ft 상공 구름 보통
고도 8000ft 상공 흐림
이슬비, 비

TAF: VOHS 150500Z 1506/1612 05008KT 5000 HZ SCT015 SCT025 BECMG 1520/1522 04005KT 3000 BR SCT010 BKN080 TEMPO 1600/1603 1500 BR BKN010 BECMG 1604/1606 03008KT 5000 HZ SCT015 BKN100 TEMPO 1606/1612 3000 DZ RA SCT010 OVC080

4,000개 이상의 공항 관측 자료 및 예보 (METAR 및 TAF 보고).

지도상에서 검색 가능한 기상관측소가 노란 점과 빨간 점으로 표시되어 있습니다.

기상관측소 명을 보려면 표시 위로 마우스를 이동하세요.

날씨 관측과 예보를 보려면 클릭하세요.

지도 변경 : 확대하려면 엑스 표시가 있는 녹색 버튼, 축소하려면 빼기 표시가 있는 녹색 버튼, 다음 페이지의 지도를 보려면 녹색 화살표를 클릭하세요.


METAR-TAF: